Time;durP1;ratioP1;P1;durP2;ratioP2;P2;SDS_P1;SDS_P2;PMS_P1;PMS_P2;Temp;Humidity;BMP_temperature;BMP_pressure;BME280_temperature;BME280_humidity;BME280_pressure;Samples;Min_cycle;Max_cycle;Signal;HPM_P1;HPM_P2
2022/06/12 00:00:35;;;;;;;14.90;14.30;;;;;;;;;;5133475;27;20192;-74
2022/06/12 00:03:03;;;;;;;14.80;14.20;;;;;;;;;;5133088;27;20196;-76
2022/06/12 00:05:33;;;;;;;14.93;14.32;;;;;;;;;;5133093;27;20207;-75
2022/06/12 00:08:00;;;;;;;15.85;15.25;;;;;;;;;;5133052;27;20196;-75
2022/06/12 00:10:27;;;;;;;16.00;15.30;;;;;;;;;;5132992;27;20231;-74
2022/06/12 00:12:54;;;;;;;15.32;14.73;;;;;;;;;;5133008;27;20263;-75
2022/06/12 00:15:24;;;;;;;16.02;15.32;;;;;;;;;;5132848;27;20228;-76
2022/06/12 00:17:52;;;;;;;16.40;15.70;;;;;;;;;;5132958;28;20189;-75
2022/06/12 00:20:19;;;;;;;16.63;15.93;;;;;;;;;;5132869;28;20200;-75
2022/06/12 00:22:48;;;;;;;16.00;15.30;;;;;;;;;;5132870;28;20249;-75
2022/06/12 00:25:17;;;;;;;15.90;15.20;;;;;;;;;;5133204;28;20192;-75
2022/06/12 00:27:44;;;;;;;16.40;15.70;;;;;;;;;;5132824;28;20604;-76
2022/06/12 00:30:13;;;;;;;16.00;15.30;;;;;;;;;;5132852;28;20573;-75
2022/06/12 00:32:40;;;;;;;16.80;16.10;;;;;;;;;;5132808;28;20192;-76
2022/06/12 00:35:08;;;;;;;16.95;16.15;;;;;;;;;;5132691;28;20269;-73
2022/06/12 00:37:37;;;;;;;17.05;16.35;;;;;;;;;;5136607;27;20573;-75
2022/06/12 00:40:06;;;;;;;17.08;16.27;;;;;;;;;;5137254;27;20200;-76
2022/06/12 00:42:35;;;;;;;17.60;16.80;;;;;;;;;;5136879;27;20224;-76
2022/06/12 00:45:03;;;;;;;17.88;17.08;;;;;;;;;;5136812;27;20188;-75
2022/06/12 00:47:29;;;;;;;19.35;18.45;;;;;;;;;;5136820;27;20249;-76
2022/06/12 00:49:58;;;;;;;17.70;16.90;;;;;;;;;;5137559;27;20236;-77
2022/06/12 00:52:30;;;;;;;17.80;17.00;;;;;;;;;;5137087;27;20196;-76
2022/06/12 00:54:59;;;;;;;18.17;17.38;;;;;;;;;;5136919;27;20316;-77
2022/06/12 00:57:29;;;;;;;18.10;17.30;;;;;;;;;;5136638;27;20193;-76
2022/06/12 00:59:57;;;;;;;15.93;15.23;;;;;;;;;;5136548;27;20229;-75
2022/06/12 01:02:27;;;;;;;18.10;17.30;;;;;;;;;;5136540;27;20196;-77
2022/06/12 01:07:39;;;;;;;17.15;16.35;;;;;;;;;;5136886;27;20207;-75
2022/06/12 01:10:08;;;;;;;16.70;15.90;;;;;;;;;;5136351;27;20250;-75
2022/06/12 01:12:38;;;;;;;17.40;16.60;;;;;;;;;;5136396;27;20219;-75
2022/06/12 01:15:08;;;;;;;16.10;15.40;;;;;;;;;;5136610;27;20212;-76
2022/06/12 01:17:35;;;;;;;15.95;15.25;;;;;;;;;;5136563;27;20196;-76
2022/06/12 01:20:05;;;;;;;16.60;15.90;;;;;;;;;;5136197;27;20652;-75
2022/06/12 01:22:56;;;;;;;16.23;15.52;;;;;;;;;;5136138;27;20193;-75
2022/06/12 01:25:43;;;;;;;15.95;15.35;;;;;;;;;;5136100;27;20189;-75
2022/06/12 01:28:15;;;;;;;16.10;15.40;;;;;;;;;;5136081;27;20223;-75
2022/06/12 01:30:46;;;;;;;15.90;15.30;;;;;;;;;;5136024;27;20185;-76
2022/06/12 01:33:15;;;;;;;16.02;15.43;;;;;;;;;;5135992;27;20189;-75
2022/06/12 01:35:46;;;;;;;15.52;14.93;;;;;;;;;;5135768;27;20668;-76
2022/06/12 01:38:17;;;;;;;15.27;14.68;;;;;;;;;;5135915;27;20228;-75
2022/06/12 01:40:47;;;;;;;15.90;15.30;;;;;;;;;;5135790;27;20192;-76
2022/06/12 01:43:15;;;;;;;15.50;14.90;;;;;;;;;;5136604;27;20189;-75
2022/06/12 01:45:46;;;;;;;15.98;15.35;;;;;;;;;;5135686;27;20200;-75
2022/06/12 01:48:21;;;;;;;16.00;15.40;;;;;;;;;;5134807;27;20237;-76
2022/06/12 01:50:52;;;;;;;16.70;16.00;;;;;;;;;;5135643;27;20634;-74
2022/06/12 01:53:25;;;;;;;16.10;15.45;;;;;;;;;;5135929;27;20189;-76
2022/06/12 01:55:55;;;;;;;15.80;15.18;;;;;;;;;;5135448;27;20713;-75
2022/06/12 01:58:25;;;;;;;15.50;14.90;;;;;;;;;;5135791;27;20196;-76
2022/06/12 02:00:58;;;;;;;15.55;14.95;;;;;;;;;;5135762;27;20216;-74
2022/06/12 02:03:29;;;;;;;15.95;15.35;;;;;;;;;;5135384;27;20229;-76
2022/06/12 02:06:00;;;;;;;15.98;15.38;;;;;;;;;;5135362;27;20650;-75
2022/06/12 02:08:29;;;;;;;16.30;15.60;;;;;;;;;;5135668;27;20192;-76
2022/06/12 02:13:10;;;;;;;16.20;15.50;;;;;;;;;;5135226;27;20249;-75
2022/06/12 02:13:46;;;;;;;16.40;15.70;;;;;;;;;;5134898;27;20733;-76
2022/06/12 02:16:16;;;;;;;16.48;15.77;;;;;;;;;;5134981;27;20720;-76
2022/06/12 02:18:46;;;;;;;16.48;15.77;;;;;;;;;;5135006;27;20196;-75
2022/06/12 02:21:16;;;;;;;16.70;16.00;;;;;;;;;;5135305;27;20196;-75
2022/06/12 02:23:45;;;;;;;15.60;15.00;;;;;;;;;;5135187;27;20227;-76
2022/06/12 02:26:13;;;;;;;16.60;15.90;;;;;;;;;;5134871;27;20654;-75
2022/06/12 02:28:42;;;;;;;15.48;14.88;;;;;;;;;;5134792;27;20232;-75
2022/06/12 02:31:10;;;;;;;15.32;14.73;;;;;;;;;;5134826;27;20232;-76
2022/06/12 02:33:40;;;;;;;15.38;14.77;;;;;;;;;;5135002;27;20188;-76
2022/06/12 02:36:09;;;;;;;16.17;15.48;;;;;;;;;;5134925;27;20227;-75
2022/06/12 02:38:38;;;;;;;15.18;14.57;;;;;;;;;;5134569;27;20196;-76
2022/06/12 02:41:06;;;;;;;14.93;14.32;;;;;;;;;;5134608;27;20188;-75
2022/06/12 02:43:34;;;;;;;15.50;14.90;;;;;;;;;;5134532;27;20560;-76
2022/06/12 02:46:03;;;;;;;14.73;14.13;;;;;;;;;;5134401;27;20578;-76
2022/06/12 02:48:30;;;;;;;14.48;13.88;;;;;;;;;;5134501;27;20196;-76
2022/06/12 02:51:07;;;;;;;15.20;14.60;;;;;;;;;;5134348;27;20666;-76
2022/06/12 02:53:39;;;;;;;16.45;15.75;;;;;;;;;;5134701;27;20189;-75
2022/06/12 02:56:11;;;;;;;16.35;15.65;;;;;;;;;;5134241;27;20275;-76
2022/06/12 02:58:40;;;;;;;15.40;14.80;;;;;;;;;;5134288;27;20189;-75
2022/06/12 03:01:08;;;;;;;16.08;15.48;;;;;;;;;;5134398;27;20228;-76
2022/06/12 03:03:39;;;;;;;15.80;15.20;;;;;;;;;;5134162;27;20193;-75
2022/06/12 03:06:08;;;;;;;16.70;16.00;;;;;;;;;;5134100;27;20184;-75
2022/06/12 03:08:37;;;;;;;16.05;15.35;;;;;;;;;;5134087;27;20196;-76
2022/06/12 03:11:06;;;;;;;16.45;15.75;;;;;;;;;;5133996;27;20196;-75
2022/06/12 03:13:33;;;;;;;16.02;15.43;;;;;;;;;;5133694;27;20228;-76
2022/06/12 03:16:01;;;;;;;15.85;15.25;;;;;;;;;;5133877;27;20224;-73
2022/06/12 03:18:30;;;;;;;15.25;14.65;;;;;;;;;;5133845;27;20316;-73
2022/06/12 03:21:05;;;;;;;14.93;14.32;;;;;;;;;;5133892;27;20641;-73
2022/06/12 03:23:39;;;;;;;14.73;14.13;;;;;;;;;;5134059;27;20606;-76
2022/06/12 03:26:08;;;;;;;14.60;14.10;;;;;;;;;;5133813;27;20253;-75
2022/06/12 03:28:39;;;;;;;14.23;13.73;;;;;;;;;;5133613;27;20188;-76
2022/06/12 03:31:12;;;;;;;13.93;13.43;;;;;;;;;;5133673;27;20650;-76
2022/06/12 03:33:45;;;;;;;13.60;13.10;;;;;;;;;;5133571;27;20191;-76
2022/06/12 03:36:16;;;;;;;12.98;12.57;;;;;;;;;;5133727;27;20245;-75
2022/06/12 03:38:47;;;;;;;13.30;12.80;;;;;;;;;;5133375;27;20617;-76
2022/06/12 03:41:19;;;;;;;13.40;12.90;;;;;;;;;;5133729;27;20201;-76
2022/06/12 03:43:49;;;;;;;12.73;12.32;;;;;;;;;;5133375;27;20238;-77
2022/06/12 03:46:19;;;;;;;12.07;11.68;;;;;;;;;;5133635;27;20279;-72
2022/06/12 03:48:51;;;;;;;12.38;11.98;;;;;;;;;;5133623;27;20232;-76
2022/06/12 03:51:23;;;;;;;11.80;11.40;;;;;;;;;;5133766;27;20189;-77
2022/06/12 03:53:54;;;;;;;11.32;10.93;;;;;;;;;;5133406;27;20192;-77
2022/06/12 03:59:13;;;;;;;12.00;11.50;;;;;;;;;;5134127;27;20202;-77
2022/06/12 04:01:42;;;;;;;13.13;12.63;;;;;;;;;;5133582;27;20188;-73
2022/06/12 04:04:09;;;;;;;13.35;12.75;;;;;;;;;;5134111;27;20611;-77
2022/06/12 04:06:37;;;;;;;13.23;12.73;;;;;;;;;;5133751;27;20208;-79
2022/06/12 04:09:06;;;;;;;13.40;12.80;;;;;;;;;;5133605;27;20192;-77
2022/06/12 04:11:35;;;;;;;13.38;12.77;;;;;;;;;;5133133;27;20662;-80
2022/06/12 04:14:03;;;;;;;13.60;13.00;;;;;;;;;;5133970;27;20239;-80
2022/06/12 04:16:32;;;;;;;13.35;12.75;;;;;;;;;;5133989;27;20234;-72
2022/06/12 04:18:59;;;;;;;13.85;13.25;;;;;;;;;;5133214;28;20612;-72
2022/06/12 04:21:30;;;;;;;14.82;14.13;;;;;;;;;;5133496;28;20200;-79
2022/06/12 04:24:01;;;;;;;15.32;14.52;;;;;;;;;;5133340;28;20714;-80
2022/06/12 04:26:32;;;;;;;16.52;15.52;;;;;;;;;;5132907;28;20185;-79
2022/06/12 04:29:00;;;;;;;18.60;17.30;;;;;;;;;;5132866;28;20212;-71
2022/06/12 04:31:28;;;;;;;19.13;17.73;;;;;;;;;;5133161;28;20573;-79
2022/06/12 04:34:03;;;;;;;18.40;17.20;;;;;;;;;;5132770;28;20192;-77
2022/06/12 04:36:30;;;;;;;16.30;15.40;;;;;;;;;;5132710;28;20261;-79
2022/06/12 04:38:57;;;;;;;16.20;15.30;;;;;;;;;;5132755;28;20195;-71
2022/06/12 04:41:25;;;;;;;16.23;15.32;;;;;;;;;;5132769;28;20229;-78
2022/06/12 04:43:53;;;;;;;15.68;14.88;;;;;;;;;;5132626;28;20713;-71
2022/06/12 04:46:21;;;;;;;15.93;15.02;;;;;;;;;;5132702;28;20280;-78
2022/06/12 04:48:49;;;;;;;15.63;14.82;;;;;;;;;;5133480;28;20283;-71
2022/06/12 04:51:16;;;;;;;15.20;14.40;;;;;;;;;;5132658;28;20204;-72
2022/06/12 04:53:45;;;;;;;14.77;14.07;;;;;;;;;;5133440;28;20224;-78
2022/06/12 04:56:12;;;;;;;15.63;14.82;;;;;;;;;;5132482;28;20323;-71
2022/06/12 04:58:40;;;;;;;16.55;15.60;;;;;;;;;;5132637;28;20188;-79
2022/06/12 05:01:08;;;;;;;17.40;16.30;;;;;;;;;;5132469;28;20701;-72
2022/06/12 05:03:35;;;;;;;16.67;15.68;;;;;;;;;;5132517;28;20196;-71
2022/06/12 05:06:04;;;;;;;16.23;15.32;;;;;;;;;;5132456;28;20332;-76
2022/06/12 05:08:31;;;;;;;15.60;14.80;;;;;;;;;;5132781;28;20660;-71
2022/06/12 05:10:58;;;;;;;14.90;14.20;;;;;;;;;;5132440;28;20199;-71
2022/06/12 05:13:25;;;;;;;13.73;13.13;;;;;;;;;;5132175;28;20315;-72
2022/06/12 05:15:53;;;;;;;14.70;14.00;;;;;;;;;;5132577;28;20228;-72
2022/06/12 05:18:21;;;;;;;15.00;14.30;;;;;;;;;;5132298;28;20600;-71
2022/06/12 05:20:50;;;;;;;14.10;13.40;;;;;;;;;;5132374;28;20246;-79
2022/06/12 05:23:17;;;;;;;14.48;13.77;;;;;;;;;;5134040;27;20223;-71
2022/06/12 05:25:44;;;;;;;14.52;13.82;;;;;;;;;;5136588;27;20196;-77
2022/06/12 05:28:13;;;;;;;14.88;14.10;;;;;;;;;;5136095;27;20275;-71
2022/06/12 05:30:40;;;;;;;15.30;14.50;;;;;;;;;;5135920;27;20199;-78
2022/06/12 05:33:07;;;;;;;16.27;15.38;;;;;;;;;;5135910;27;20195;-71
2022/06/12 05:35:37;;;;;;;15.65;14.85;;;;;;;;;;5135768;27;20199;-71
2022/06/12 05:38:04;;;;;;;16.85;15.95;;;;;;;;;;5136130;27;20192;-71
2022/06/12 05:40:32;;;;;;;17.25;16.25;;;;;;;;;;5135779;27;20188;-71
2022/06/12 05:43:00;;;;;;;16.80;15.90;;;;;;;;;;5135728;27;20284;-71
2022/06/12 05:45:28;;;;;;;17.67;16.77;;;;;;;;;;5135657;27;20631;-72
2022/06/12 05:47:56;;;;;;;17.33;16.35;;;;;;;;;;5135595;27;20189;-71
2022/06/12 05:50:24;;;;;;;16.67;15.77;;;;;;;;;;5135645;27;20203;-72
2022/06/12 05:52:53;;;;;;;15.85;15.05;;;;;;;;;;5135469;27;20602;-75
2022/06/12 05:55:20;;;;;;;16.10;15.30;;;;;;;;;;5135813;27;20220;-70
2022/06/12 05:57:48;;;;;;;16.50;15.70;;;;;;;;;;5135405;27;20220;-72
2022/06/12 06:00:17;;;;;;;15.68;14.88;;;;;;;;;;5136182;27;20212;-71
2022/06/12 06:02:44;;;;;;;15.80;14.95;;;;;;;;;;5135685;27;20559;-71
2022/06/12 06:05:11;;;;;;;15.48;14.68;;;;;;;;;;5135277;27;20283;-72
2022/06/12 06:07:38;;;;;;;15.43;14.65;;;;;;;;;;5135268;27;20239;-71
2022/06/12 06:10:09;;;;;;;15.50;14.73;;;;;;;;;;5135205;27;20707;-71
2022/06/12 06:12:36;;;;;;;15.40;14.60;;;;;;;;;;5135294;27;20180;-71
2022/06/12 06:15:03;;;;;;;15.57;14.77;;;;;;;;;;5135164;27;20622;-71
2022/06/12 06:17:30;;;;;;;16.38;15.48;;;;;;;;;;5135262;27;20289;-71
2022/06/12 06:19:57;;;;;;;16.17;15.38;;;;;;;;;;5135067;27;20193;-71
2022/06/12 06:22:24;;;;;;;15.70;14.90;;;;;;;;;;5134953;27;20193;-78
2022/06/12 06:24:51;;;;;;;16.10;15.30;;;;;;;;;;5134934;27;20287;-70
2022/06/12 06:27:19;;;;;;;16.10;15.20;;;;;;;;;;5134851;27;20681;-78
2022/06/12 06:29:46;;;;;;;15.90;15.10;;;;;;;;;;5134814;27;20279;-71
2022/06/12 06:32:13;;;;;;;14.90;14.20;;;;;;;;;;5135088;27;20192;-71
2022/06/12 06:34:41;;;;;;;16.15;15.32;;;;;;;;;;5134451;27;20284;-71
2022/06/12 06:37:09;;;;;;;15.82;15.02;;;;;;;;;;5134604;27;20224;-79
2022/06/12 06:39:36;;;;;;;16.50;15.60;;;;;;;;;;5135143;27;20196;-77
2022/06/12 06:42:03;;;;;;;16.65;15.75;;;;;;;;;;5134588;27;20674;-77
2022/06/12 06:47:16;;;;;;;15.77;15.02;;;;;;;;;;5134693;27;20279;-71
2022/06/12 06:49:43;;;;;;;16.98;16.05;;;;;;;;;;5134432;27;20210;-71
2022/06/12 06:52:10;;;;;;;15.85;14.98;;;;;;;;;;5134646;27;20204;-72
2022/06/12 06:54:37;;;;;;;16.10;15.30;;;;;;;;;;5134384;27;20279;-72
2022/06/12 06:57:04;;;;;;;15.68;14.88;;;;;;;;;;5135265;27;20257;-72
2022/06/12 06:59:32;;;;;;;16.70;15.80;;;;;;;;;;5134569;27;20219;-79
2022/06/12 07:02:00;;;;;;;18.27;17.38;;;;;;;;;;5134214;27;20199;-72
2022/06/12 07:04:27;;;;;;;18.35;17.35;;;;;;;;;;5134170;27;20769;-79
2022/06/12 07:06:54;;;;;;;18.65;17.65;;;;;;;;;;5134095;27;20283;-75
2022/06/12 07:09:21;;;;;;;19.85;18.85;;;;;;;;;;5134025;27;20674;-73
2022/06/12 07:11:48;;;;;;;18.95;17.95;;;;;;;;;;5134029;27;20225;-77
2022/06/12 07:14:15;;;;;;;20.27;19.17;;;;;;;;;;5133706;27;20281;-73
2022/06/12 07:16:43;;;;;;;19.90;18.80;;;;;;;;;;5134211;27;20223;-78
2022/06/12 07:19:11;;;;;;;19.92;18.83;;;;;;;;;;5133862;27;20636;-73
2022/06/12 07:21:38;;;;;;;21.00;19.90;;;;;;;;;;5134155;27;20196;-79
2022/06/12 07:24:06;;;;;;;20.10;19.00;;;;;;;;;;5133793;27;20224;-77
2022/06/12 07:26:35;;;;;;;20.95;19.85;;;;;;;;;;5133932;27;20196;-74
2022/06/12 07:29:02;;;;;;;20.35;19.25;;;;;;;;;;5133765;27;20196;-73
2022/06/12 07:31:29;;;;;;;19.38;18.38;;;;;;;;;;5133619;27;20192;-77
2022/06/12 07:33:58;;;;;;;19.95;18.95;;;;;;;;;;5133957;27;20271;-73
2022/06/12 07:36:25;;;;;;;19.10;18.15;;;;;;;;;;5133686;27;20220;-79
2022/06/12 07:38:53;;;;;;;18.30;17.40;;;;;;;;;;5133474;27;20279;-73
2022/06/12 07:41:20;;;;;;;19.50;18.50;;;;;;;;;;5133496;27;20764;-79
2022/06/12 07:43:48;;;;;;;19.70;18.70;;;;;;;;;;5133416;27;20188;-78
2022/06/12 07:46:17;;;;;;;20.30;19.20;;;;;;;;;;5132706;27;20192;-79
2022/06/12 07:48:45;;;;;;;21.35;20.15;;;;;;;;;;5133683;27;20200;-79
2022/06/12 07:51:15;;;;;;;20.05;19.05;;;;;;;;;;5133403;27;20749;-77
2022/06/12 07:53:42;;;;;;;19.88;18.77;;;;;;;;;;5133382;27;20195;-76
2022/06/12 07:56:10;;;;;;;20.13;19.13;;;;;;;;;;5133205;27;20620;-79
2022/06/12 07:58:37;;;;;;;18.02;17.13;;;;;;;;;;5133216;27;20634;-79
2022/06/12 08:01:07;;;;;;;20.88;19.77;;;;;;;;;;5133206;27;20231;-78
2022/06/12 08:03:34;;;;;;;19.40;18.30;;;;;;;;;;5133547;27;20203;-79
2022/06/12 08:06:01;;;;;;;19.60;18.50;;;;;;;;;;5133044;27;20279;-77
2022/06/12 08:08:30;;;;;;;20.40;19.30;;;;;;;;;;5133741;27;20280;-78
2022/06/12 08:10:57;;;;;;;18.15;17.15;;;;;;;;;;5133673;27;20216;-79
2022/06/12 08:13:24;;;;;;;19.95;18.85;;;;;;;;;;5133267;27;20236;-78
2022/06/12 08:15:53;;;;;;;20.60;19.50;;;;;;;;;;5133037;27;20192;-76
2022/06/12 08:18:20;;;;;;;20.80;19.70;;;;;;;;;;5133040;27;20234;-75
2022/06/12 08:20:49;;;;;;;20.30;19.20;;;;;;;;;;5133267;28;20192;-76
2022/06/12 08:23:27;;;;;;;19.27;18.27;;;;;;;;;;5133138;28;20218;-79
2022/06/12 08:25:57;;;;;;;20.55;19.48;;;;;;;;;;5132956;28;20188;-79
2022/06/12 08:28:25;;;;;;;20.10;19.00;;;;;;;;;;5132851;28;20245;-78
2022/06/12 08:30:52;;;;;;;19.42;18.42;;;;;;;;;;5132927;28;20571;-77
2022/06/12 08:33:19;;;;;;;19.10;18.10;;;;;;;;;;5132864;28;20564;-78
2022/06/12 08:35:47;;;;;;;19.00;18.00;;;;;;;;;;5133085;28;20200;-78
2022/06/12 08:38:14;;;;;;;18.73;17.73;;;;;;;;;;5132722;28;20720;-78
2022/06/12 08:40:45;;;;;;;20.00;19.00;;;;;;;;;;5132802;28;20236;-78
2022/06/12 08:43:17;;;;;;;20.15;19.05;;;;;;;;;;5133118;28;20184;-78
2022/06/12 08:45:45;;;;;;;21.17;20.08;;;;;;;;;;5132672;28;20195;-78
2022/06/12 08:48:15;;;;;;;20.75;19.65;;;;;;;;;;5132684;28;20200;-78
2022/06/12 08:50:45;;;;;;;20.60;19.50;;;;;;;;;;5132682;28;20192;-78
2022/06/12 08:53:17;;;;;;;21.27;20.08;;;;;;;;;;5132640;28;20189;-78
2022/06/12 08:55:46;;;;;;;20.30;19.20;;;;;;;;;;5132630;28;20189;-78
2022/06/12 08:58:18;;;;;;;21.42;20.23;;;;;;;;;;5135577;27;20224;-78
2022/06/12 09:00:46;;;;;;;21.08;19.88;;;;;;;;;;5136655;27;20181;-79
2022/06/12 09:03:15;;;;;;;149.93;79.82;;;;;;;;;;5136546;27;20207;-78
2022/06/12 09:05:45;;;;;;;21.90;20.60;;;;;;;;;;5136540;27;20275;-78
2022/06/12 09:08:14;;;;;;;19.50;18.40;;;;;;;;;;5136357;27;20204;-78
2022/06/12 09:10:43;;;;;;;21.50;20.30;;;;;;;;;;5136369;27;20567;-78
2022/06/12 09:13:16;;;;;;;20.75;19.55;;;;;;;;;;5136185;27;20227;-78
2022/06/12 09:15:49;;;;;;;20.55;19.45;;;;;;;;;;5136597;27;20644;-78
2022/06/12 09:18:22;;;;;;;20.55;19.35;;;;;;;;;;5136174;27;20219;-77
2022/06/12 09:20:53;;;;;;;20.80;19.60;;;;;;;;;;5136288;27;20220;-78
2022/06/12 09:23:26;;;;;;;21.45;20.25;;;;;;;;;;5136290;27;20266;-78
2022/06/12 09:25:56;;;;;;;21.52;20.33;;;;;;;;;;5136161;27;20185;-76
2022/06/12 09:28:28;;;;;;;21.65;20.45;;;;;;;;;;5136490;27;20231;-77
2022/06/12 09:31:01;;;;;;;20.63;19.42;;;;;;;;;;5136067;27;20271;-77
2022/06/12 09:33:32;;;;;;;20.45;19.25;;;;;;;;;;5136295;27;20237;-78
2022/06/12 09:36:04;;;;;;;20.38;19.27;;;;;;;;;;5136004;27;20185;-78
2022/06/12 09:38:38;;;;;;;19.95;18.85;;;;;;;;;;5136054;27;20213;-78
2022/06/12 09:41:09;;;;;;;20.45;19.35;;;;;;;;;;5135869;27;20224;-77
2022/06/12 09:43:41;;;;;;;20.90;19.70;;;;;;;;;;5135821;27;20187;-77
2022/06/12 09:46:16;;;;;;;19.90;18.80;;;;;;;;;;5135837;27;20617;-74
2022/06/12 09:48:55;;;;;;;20.20;19.10;;;;;;;;;;5135682;27;20189;-77
2022/06/12 09:51:27;;;;;;;20.77;19.58;;;;;;;;;;5136278;27;20184;-77
2022/06/12 09:53:59;;;;;;;20.52;19.35;;;;;;;;;;5135568;27;20188;-77
2022/06/12 09:56:29;;;;;;;19.75;18.65;;;;;;;;;;5135543;27;20180;-76
2022/06/12 09:59:01;;;;;;;20.30;19.20;;;;;;;;;;5135350;27;20220;-77
2022/06/12 10:01:31;;;;;;;20.52;19.42;;;;;;;;;;5135480;27;20646;-76
2022/06/12 10:04:00;;;;;;;20.48;19.38;;;;;;;;;;5135363;27;20245;-76
2022/06/12 10:06:29;;;;;;;19.70;18.60;;;;;;;;;;5135351;27;20196;-77
2022/06/12 10:08:58;;;;;;;20.40;19.30;;;;;;;;;;5135067;27;20207;-76
2022/06/12 10:11:27;;;;;;;20.48;19.38;;;;;;;;;;5135219;27;20249;-77
2022/06/12 10:13:56;;;;;;;20.13;19.02;;;;;;;;;;5134973;27;20250;-76
2022/06/12 10:16:26;;;;;;;20.02;19.02;;;;;;;;;;5135417;27;20189;-76
2022/06/12 10:18:57;;;;;;;20.10;19.00;;;;;;;;;;5135093;27;20307;-76
2022/06/12 10:21:26;;;;;;;20.27;19.17;;;;;;;;;;5135278;27;20181;-77
2022/06/12 10:23:53;;;;;;;20.73;19.52;;;;;;;;;;5135037;27;20312;-75
2022/06/12 10:26:21;;;;;;;20.45;19.35;;;;;;;;;;5135254;27;20193;-76
2022/06/12 10:29:00;;;;;;;20.48;19.27;;;;;;;;;;5134926;27;20201;-76
2022/06/12 10:31:27;;;;;;;19.83;18.65;;;;;;;;;;5134887;27;20192;-77
2022/06/12 10:34:05;;;;;;;19.67;18.63;;;;;;;;;;5134827;27;20188;-76
2022/06/12 10:36:34;;;;;;;20.02;18.92;;;;;;;;;;5135053;27;20245;-76
2022/06/12 10:39:07;;;;;;;19.60;18.50;;;;;;;;;;5134952;27;20582;-76
2022/06/12 10:41:41;;;;;;;19.00;18.00;;;;;;;;;;5134969;27;20188;-76
2022/06/12 10:44:26;;;;;;;17.38;16.48;;;;;;;;;;5134611;27;20245;-75
2022/06/12 10:46:53;;;;;;;17.80;16.85;;;;;;;;;;5134518;27;20188;-73
2022/06/12 10:49:23;;;;;;;17.20;16.30;;;;;;;;;;5134490;27;20200;-75
2022/06/12 10:51:51;;;;;;;17.17;16.27;;;;;;;;;;5134402;27;20287;-76
2022/06/12 10:54:19;;;;;;;19.00;18.00;;;;;;;;;;5135164;27;20223;-76
2022/06/12 10:56:52;;;;;;;19.15;18.15;;;;;;;;;;5134349;27;20197;-76
2022/06/12 10:59:28;;;;;;;20.25;19.15;;;;;;;;;;5134297;27;20216;-76
2022/06/12 11:02:00;;;;;;;19.85;18.75;;;;;;;;;;5134261;27;20195;-76
2022/06/12 11:04:34;;;;;;;20.33;19.13;;;;;;;;;;5134564;27;20206;-76
2022/06/12 11:07:06;;;;;;;21.52;20.33;;;;;;;;;;5134163;27;20248;-73
2022/06/12 11:09:39;;;;;;;21.50;20.30;;;;;;;;;;5134173;27;20192;-74
2022/06/12 11:12:13;;;;;;;21.48;20.27;;;;;;;;;;5133993;27;20185;-76
2022/06/12 11:14:48;;;;;;;21.23;20.02;;;;;;;;;;5134127;27;20235;-76
2022/06/12 11:17:36;;;;;;;21.05;19.85;;;;;;;;;;5133870;27;20193;-75
2022/06/12 11:20:13;;;;;;;21.13;19.92;;;;;;;;;;5133316;27;20193;-76
2022/06/12 11:22:43;;;;;;;20.83;19.63;;;;;;;;;;5133760;27;20734;-76
2022/06/12 11:25:23;;;;;;;20.65;19.45;;;;;;;;;;5133838;27;20188;-76
2022/06/12 11:27:56;;;;;;;21.35;20.08;;;;;;;;;;5133764;27;20650;-76
2022/06/12 11:30:30;;;;;;;20.85;19.65;;;;;;;;;;5133731;27;20203;-76
2022/06/12 11:33:02;;;;;;;20.70;19.50;;;;;;;;;;5134017;27;20263;-76
2022/06/12 11:35:37;;;;;;;20.75;19.55;;;;;;;;;;5133579;27;20184;-76
2022/06/12 11:38:10;;;;;;;20.48;19.27;;;;;;;;;;5133601;27;20215;-76
2022/06/12 11:40:45;;;;;;;21.13;19.92;;;;;;;;;;5133471;27;20246;-77
2022/06/12 11:43:17;;;;;;;21.40;20.20;;;;;;;;;;5133526;27;20197;-76
2022/06/12 11:45:51;;;;;;;21.52;20.33;;;;;;;;;;5133728;27;20188;-76
2022/06/12 11:48:32;;;;;;;22.35;21.05;;;;;;;;;;5133718;27;20180;-75
2022/06/12 11:51:06;;;;;;;21.73;20.42;;;;;;;;;;5130398;27;20244;-75
2022/06/12 11:53:43;;;;;;;22.55;21.25;;;;;;;;;;5133678;27;20208;-76
2022/06/12 11:56:15;;;;;;;21.70;20.50;;;;;;;;;;5133345;27;20177;-77
2022/06/12 11:58:48;;;;;;;22.38;21.08;;;;;;;;;;5133192;27;20216;-76
2022/06/12 12:01:21;;;;;;;21.73;20.52;;;;;;;;;;5133237;27;20470;-76
2022/06/12 12:03:56;;;;;;;21.27;20.08;;;;;;;;;;5133223;27;20191;-76
2022/06/12 12:06:40;;;;;;;21.42;20.23;;;;;;;;;;5133214;27;20190;-72
2022/06/12 12:09:13;;;;;;;20.88;19.67;;;;;;;;;;5133096;27;20249;-77
2022/06/12 12:11:43;;;;;;;20.73;19.52;;;;;;;;;;5133323;27;20188;-74
2022/06/12 12:14:13;;;;;;;20.90;19.70;;;;;;;;;;5133007;27;20228;-76
2022/06/12 12:16:41;;;;;;;21.30;20.10;;;;;;;;;;5133598;27;20207;-74
2022/06/12 12:19:19;;;;;;;21.08;19.80;;;;;;;;;;5133120;27;20224;-75
2022/06/12 12:21:50;;;;;;;21.17;19.88;;;;;;;;;;5132995;28;20645;-75
2022/06/12 12:24:19;;;;;;;21.10;19.90;;;;;;;;;;5132931;28;20245;-76
2022/06/12 12:26:46;;;;;;;21.20;20.00;;;;;;;;;;5132908;28;20204;-76
2022/06/12 12:29:17;;;;;;;21.30;20.08;;;;;;;;;;5132843;28;20578;-76
2022/06/12 12:31:45;;;;;;;20.83;19.55;;;;;;;;;;5133502;27;20200;-74
2022/06/12 12:34:12;;;;;;;20.73;19.45;;;;;;;;;;5137447;27;20577;-74
2022/06/12 12:42:21;;;;;;;20.55;19.33;;;;;;;;;;5137165;27;20188;-75
2022/06/12 12:44:48;;;;;;;21.75;20.45;;;;;;;;;;5137166;27;20184;-76
2022/06/12 12:47:19;;;;;;;21.55;20.25;;;;;;;;;;5137218;27;20251;-77
2022/06/12 12:49:46;;;;;;;21.13;19.83;;;;;;;;;;5137117;27;20560;-74
2022/06/12 12:52:15;;;;;;;22.05;20.75;;;;;;;;;;5136826;27;20685;-76
2022/06/12 12:54:45;;;;;;;21.98;20.58;;;;;;;;;;5136751;27;20192;-74
2022/06/12 12:57:13;;;;;;;22.50;21.20;;;;;;;;;;5136712;27;20192;-75
2022/06/12 12:59:42;;;;;;;21.67;20.38;;;;;;;;;;5136628;27;20235;-76
2022/06/12 13:02:18;;;;;;;21.30;20.00;;;;;;;;;;5136850;27;20188;-75
2022/06/12 13:04:45;;;;;;;20.67;19.48;;;;;;;;;;5136616;27;20681;-75
2022/06/12 13:07:18;;;;;;;21.52;20.23;;;;;;;;;;5136816;27;20265;-75
2022/06/12 13:10:00;;;;;;;21.30;20.00;;;;;;;;;;5136806;27;20193;-75
2022/06/12 13:12:39;;;;;;;21.83;20.52;;;;;;;;;;5132940;27;20669;-76
2022/06/12 13:15:17;;;;;;;21.33;20.02;;;;;;;;;;5136409;27;20193;-74
2022/06/12 13:17:50;;;;;;;21.20;19.90;;;;;;;;;;5136336;27;20206;-75
2022/06/12 13:20:32;;;;;;;21.08;19.77;;;;;;;;;;5136293;27;20199;-76
2022/06/12 13:23:06;;;;;;;21.30;20.00;;;;;;;;;;5136242;27;20188;-75
2022/06/12 13:25:35;;;;;;;20.63;19.42;;;;;;;;;;5136189;27;20238;-74
2022/06/12 13:28:04;;;;;;;20.45;19.25;;;;;;;;;;5136086;27;20189;-74
2022/06/12 13:30:33;;;;;;;19.90;18.80;;;;;;;;;;5135991;27;20203;-75
2022/06/12 13:33:07;;;;;;;20.50;19.30;;;;;;;;;;5136036;27;20238;-75
2022/06/12 13:35:36;;;;;;;20.70;19.50;;;;;;;;;;5136490;27;20309;-75
2022/06/12 13:38:05;;;;;;;20.85;19.65;;;;;;;;;;5135833;27;20200;-75
2022/06/12 13:40:33;;;;;;;20.95;19.75;;;;;;;;;;5136133;27;20279;-74
2022/06/12 13:43:09;;;;;;;20.63;19.42;;;;;;;;;;5135268;27;20196;-75
2022/06/12 13:45:36;;;;;;;20.58;19.38;;;;;;;;;;5135421;27;20244;-75
2022/06/12 13:48:14;;;;;;;21.10;19.90;;;;;;;;;;5136010;27;20196;-74
2022/06/12 13:50:44;;;;;;;20.98;19.77;;;;;;;;;;5135705;27;20245;-75
2022/06/12 13:53:16;;;;;;;20.73;19.58;;;;;;;;;;5135640;27;20608;-75
2022/06/12 13:55:48;;;;;;;20.73;19.52;;;;;;;;;;5135537;27;20241;-75
2022/06/12 13:58:20;;;;;;;21.58;20.27;;;;;;;;;;5135550;27;20192;-75
2022/06/12 14:00:48;;;;;;;21.67;20.38;;;;;;;;;;5135469;27;20561;-75
2022/06/12 14:03:19;;;;;;;21.55;20.25;;;;;;;;;;5135414;27;20222;-75
2022/06/12 14:05:49;;;;;;;21.35;20.05;;;;;;;;;;5135420;27;20200;-75
2022/06/12 14:08:17;;;;;;;21.38;20.08;;;;;;;;;;5135339;27;20199;-75
2022/06/12 14:10:46;;;;;;;21.70;20.40;;;;;;;;;;5135360;27;20222;-75
2022/06/12 14:13:15;;;;;;;21.23;19.92;;;;;;;;;;5135663;27;20228;-75
2022/06/12 14:15:44;;;;;;;20.60;19.40;;;;;;;;;;5135519;27;20313;-76
2022/06/12 14:18:24;;;;;;;21.00;19.70;;;;;;;;;;5135032;27;20193;-75
2022/06/12 14:20:59;;;;;;;21.60;20.30;;;;;;;;;;5135127;27;20189;-75
2022/06/12 14:23:26;;;;;;;21.75;20.45;;;;;;;;;;5135340;27;20184;-76
2022/06/12 14:25:55;;;;;;;21.55;20.25;;;;;;;;;;5135830;27;20196;-76
2022/06/12 14:28:27;;;;;;;22.45;21.05;;;;;;;;;;5134881;27;20196;-76
2022/06/12 14:31:04;;;;;;;21.80;20.50;;;;;;;;;;5134939;27;20203;-76
2022/06/12 14:33:34;;;;;;;22.17;20.77;;;;;;;;;;5134818;27;20184;-75
2022/06/12 14:36:02;;;;;;;21.83;20.52;;;;;;;;;;5134805;27;20716;-76
2022/06/12 14:38:30;;;;;;;23.20;21.80;;;;;;;;;;5134640;27;20192;-76
2022/06/12 14:40:57;;;;;;;25.08;23.58;;;;;;;;;;5134693;27;20211;-76
2022/06/12 14:43:27;;;;;;;21.85;20.45;;;;;;;;;;5134653;27;20715;-76
2022/06/12 14:45:56;;;;;;;21.45;20.15;;;;;;;;;;5134602;27;20650;-76